Nearby METAR Reports

 

KPMP - Pompano Beach, Florida, USA
Distance from station: NNW 3mi, 5km
Updated: 05/19/2022 3:53am
Clear
Clear
 Wind from calm
Wind: Calm
Temperature: 79°F , 26°C
Dew Point: 73°F , 23°C
Humidity: 84%
Barometer: 29.99 inHg , 1015.6 hPa
Clouds: Clear
Visibility: 10 miles , 16 km
2022/05/19 07:53 KPMP 190753Z AUTO 00000KT 10SM CLR 26/23 A2999 RMK AO2 SLP156 T02560228
KFXE - Ft Lauderd/Exec, Florida, USA
Distance from station: W 6mi, 9km
Updated: 05/19/2022 3:53am
Clear
Clear
 Wind from calm
Wind: Calm
Temperature: 79°F , 26°C
Dew Point: 73°F , 23°C
Humidity: 84%
Barometer: 29.99 inHg , 1015.6 hPa
Clouds: Clear
Visibility: 10 miles , 16 km
2022/05/19 07:53 KFXE 190753Z 00000KT 10SM CLR 26/23 A2999 RMK AO2 SLP157 T02610228
 
KFLL - Ft Lauderd/Holly, Florida, USA
Distance from station: SSW 11mi, 17km
Updated: 05/19/2022 3:53am
Clear
Clear
 Wind from calm
Wind: Calm
Temperature: 79°F , 26°C
Dew Point: 73°F , 23°C
Humidity: 84%
Barometer: 29.98 inHg , 1015.2 hPa
Clouds: Clear
Visibility: 10 miles , 16 km
2022/05/19 07:53 KFLL 190753Z 00000KT 10SM CLR 26/23 A2998 RMK AO2 SLP153 T02610233 $
KBCT - Boca Raton, Florida, USA
Distance from station: N 12mi, 19km
Updated: 05/18/2022 10:53pm
NOT Current
Clear
Clear
 Wind from S
Wind: S 5 mph , 7 km/h
Temperature: 81°F , 27°C
Heat Index: 86°F , 30°C
Dew Point: 73°F , 23°C
Humidity: 79%
Barometer: 30.04 inHg , 1017.3 hPa
Clouds: Clear
Visibility: 10 miles , 16 km
2022/05/19 02:53 KBCT 190253Z 18004KT 10SM CLR 27/23 A3004
 
KHWO - Hollywood, Florida, USA
Distance from station: SSW 17mi, 27km
Updated: 05/19/2022 3:53am
Clear
Clear
 Wind from calm
Wind: Calm
Temperature: 79°F , 26°C
Dew Point: 72°F , 22°C
Humidity: 79%
Barometer: 30.00 inHg , 1015.9 hPa
Clouds: Clear
Visibility: 10 miles , 16 km
2022/05/19 07:53 KHWO 190753Z 00000KT 10SM CLR 26/22 A3000 RMK AO2 SLP159 T02560222 $
KOPF - Miami/Opa Locka, Florida, USA
Distance from station: SSW 24mi, 38km
Updated: 05/19/2022 3:53am
Clear
Clear
 Wind from calm
Wind: Calm
Temperature: 77°F , 25°C
Dew Point: 72°F , 22°C
Humidity: 83%
Barometer: 29.99 inHg , 1015.6 hPa
Clouds: Clear
Visibility: 10 miles , 16 km
2022/05/19 07:53 KOPF 190753Z AUTO 00000KT 10SM CLR 25/22 A2999 RMK AO2 SLP158 T02500217
 
KMIA - Miami, Florida, USA
Distance from station: SSW 31mi, 50km
Updated: 05/19/2022 3:53am
Partly cloudy
Partly cloudy
 Wind from calm
Wind: Calm
Temperature: 79°F , 26°C
Dew Point: 73°F , 23°C
Humidity: 84%
Barometer: 29.99 inHg , 1015.6 hPa
Clouds: Partly cloudy
Visibility: 10 miles , 16 km
Cloud details: Partly cloudy 2200 ft
Partly cloudy 3200 ft
2022/05/19 07:53 KMIA 190753Z 00000KT 10SM SCT022 SCT032 26/23 A2999 RMK AO2 SLP156 T02610233 $
KPBI - West Palm Beach, Florida, USA
Distance from station: N 33mi, 52km
Updated: 05/19/2022 3:53am
Clear
Clear
 Wind from calm
Wind: Calm
Temperature: 79°F , 26°C
Dew Point: 72°F , 22°C
Humidity: 79%
Barometer: 29.99 inHg , 1015.6 hPa
Clouds: Clear
Visibility: 10 miles , 16 km
2022/05/19 07:53 KPBI 190753Z 00000KT 10SM CLR 26/22 A2999 RMK AO2 SLP156 T02560222 $
 
KTMB - Miami/Tamiami, Florida, USA
Distance from station: SSW 44mi, 71km
Updated: 05/19/2022 3:53am
Clear
Clear
 Wind from calm
Wind: Calm
Temperature: 75°F , 24°C
Dew Point: 72°F , 22°C
Humidity: 89%
Barometer: 29.98 inHg , 1015.2 hPa
Clouds: Clear
Visibility: 10 miles , 16 km
2022/05/19 07:53 KTMB 190753Z AUTO 00000KT 10SM CLR 24/22 A2998 RMK AO2 SLP153 T02440222